sensor_id;sensor_type;location;lat;lon;timestamp;pressure;altitude;pressure_sealevel;temperature;humidity
28628;BME280;15815;46.760;19.604;2023-03-14T00:08:56;99627.38;;;7.44;51.07
28628;BME280;15815;46.760;19.604;2023-03-14T00:11:52;99628.97;;;7.45;50.85
28628;BME280;15815;46.760;19.604;2023-03-14T00:14:39;99652.91;;;7.60;50.75
28628;BME280;15815;46.760;19.604;2023-03-14T00:17:16;99616.97;;;7.37;51.02
28628;BME280;15815;46.760;19.604;2023-03-14T00:19:47;99612.59;;;7.40;50.65
28628;BME280;15815;46.760;19.604;2023-03-14T00:22:17;99612.97;;;7.35;50.77
28628;BME280;15815;46.760;19.604;2023-03-14T00:24:50;99658.94;;;7.69;51.03
28628;BME280;15815;46.760;19.604;2023-03-14T00:27:29;99644.13;;;7.55;51.12
28628;BME280;15815;46.760;19.604;2023-03-14T00:30:06;99631.34;;;7.50;50.76
28628;BME280;15815;46.760;19.604;2023-03-14T00:32:44;99643.75;;;7.56;50.73
28628;BME280;15815;46.760;19.604;2023-03-14T00:35:29;99610.19;;;7.38;50.67
28628;BME280;15815;46.760;19.604;2023-03-14T00:38:06;99632.56;;;7.53;50.56
28628;BME280;15815;46.760;19.604;2023-03-14T00:40:31;99628.56;;;7.54;50.29
28628;BME280;15815;46.760;19.604;2023-03-14T00:43:20;99629.75;;;7.56;50.06
28628;BME280;15815;46.760;19.604;2023-03-14T00:45:56;99591.41;;;7.39;50.16
28628;BME280;15815;46.760;19.604;2023-03-14T00:48:30;99600.19;;;7.37;50.24
28628;BME280;15815;46.760;19.604;2023-03-14T00:51:28;99600.59;;;7.32;50.00
28628;BME280;15815;46.760;19.604;2023-03-14T00:59:35;99627.34;;;7.58;49.94
28628;BME280;15815;46.760;19.604;2023-03-14T01:06:12;99618.97;;;7.58;50.15
28628;BME280;15815;46.760;19.604;2023-03-14T01:19:03;99602.56;;;7.64;49.38
28628;BME280;15815;46.760;19.604;2023-03-14T01:21:43;99555.47;;;7.34;49.81
28628;BME280;15815;46.760;19.604;2023-03-14T01:24:11;99553.88;;;7.33;49.56
28628;BME280;15815;46.760;19.604;2023-03-14T01:26:44;99600.16;;;7.66;49.35
28628;BME280;15815;46.760;19.604;2023-03-14T01:31:42;99551.06;;;7.36;49.32
28628;BME280;15815;46.760;19.604;2023-03-14T01:37:44;99535.53;;;7.25;49.47
28628;BME280;15815;46.760;19.604;2023-03-14T01:40:23;99579.00;;;7.58;49.81
28628;BME280;15815;46.760;19.604;2023-03-14T01:43:12;99555.88;;;7.47;49.60
28628;BME280;15815;46.760;19.604;2023-03-14T01:46:14;99563.44;;;7.53;49.78
28628;BME280;15815;46.760;19.604;2023-03-14T01:57:32;99555.44;;;7.55;49.97
28628;BME280;15815;46.760;19.604;2023-03-14T02:00:15;99551.84;;;7.55;50.12
28628;BME280;15815;46.760;19.604;2023-03-14T02:03:19;99542.28;;;7.52;50.01
28628;BME280;15815;46.760;19.604;2023-03-14T02:06:12;99497.59;;;7.20;49.90
28628;BME280;15815;46.760;19.604;2023-03-14T02:08:47;99537.50;;;7.49;49.64
28628;BME280;15815;46.760;19.604;2023-03-14T02:11:29;99532.31;;;7.44;49.96
28628;BME280;15815;46.760;19.604;2023-03-14T02:34:54;99513.97;;;7.18;51.35
28628;BME280;15815;46.760;19.604;2023-03-14T02:47:28;99497.63;;;7.13;50.82
28628;BME280;15815;46.760;19.604;2023-03-14T02:50:16;99454.53;;;6.82;51.48
28628;BME280;15815;46.760;19.604;2023-03-14T02:52:46;99456.13;;;6.79;51.03
28628;BME280;15815;46.760;19.604;2023-03-14T02:55:25;99481.25;;;6.97;50.67
28628;BME280;15815;46.760;19.604;2023-03-14T02:58:27;99500.41;;;7.09;50.99
28628;BME280;15815;46.760;19.604;2023-03-14T03:13:44;99443.34;;;6.82;50.77
28628;BME280;15815;46.760;19.604;2023-03-14T03:24:54;99483.22;;;7.11;50.58
28628;BME280;15815;46.760;19.604;2023-03-14T03:27:37;99473.28;;;7.13;50.53
28628;BME280;15815;46.760;19.604;2023-03-14T03:30:22;99469.69;;;7.17;50.42
28628;BME280;15815;46.760;19.604;2023-03-14T03:32:50;99435.38;;;6.98;50.37
28628;BME280;15815;46.760;19.604;2023-03-14T03:35:23;99413.81;;;6.85;50.27
28628;BME280;15815;46.760;19.604;2023-03-14T03:37:57;99451.31;;;7.16;49.99
28628;BME280;15815;46.760;19.604;2023-03-14T03:40:25;99432.56;;;7.05;50.04
28628;BME280;15815;46.760;19.604;2023-03-14T03:43:01;99397.84;;;6.99;49.90
28628;BME280;15815;46.760;19.604;2023-03-14T03:45:30;99403.41;;;7.06;49.53
28628;BME280;15815;46.760;19.604;2023-03-14T03:47:58;99404.22;;;7.07;49.66
28628;BME280;15815;46.760;19.604;2023-03-14T03:50:28;99428.09;;;7.29;49.70
28628;BME280;15815;46.760;19.604;2023-03-14T03:53:02;99364.31;;;6.99;49.44
28628;BME280;15815;46.760;19.604;2023-03-14T03:55:30;99380.63;;;7.11;49.75
28628;BME280;15815;46.760;19.604;2023-03-14T03:58:09;99373.88;;;7.12;49.77
28628;BME280;15815;46.760;19.604;2023-03-14T04:00:37;99362.69;;;7.05;49.75
28628;BME280;15815;46.760;19.604;2023-03-14T04:03:41;99381.84;;;7.18;49.33
28628;BME280;15815;46.760;19.604;2023-03-14T04:09:15;99361.50;;;7.06;50.09
28628;BME280;15815;46.760;19.604;2023-03-14T04:11:45;99423.28;;;7.40;50.23
28628;BME280;15815;46.760;19.604;2023-03-14T04:14:29;99384.19;;;7.26;50.01
28628;BME280;15815;46.760;19.604;2023-03-14T04:16:55;99391.78;;;7.29;50.07
28628;BME280;15815;46.760;19.604;2023-03-14T04:19:26;99398.16;;;7.30;50.28
28628;BME280;15815;46.760;19.604;2023-03-14T04:21:55;99397.34;;;7.33;50.13
28628;BME280;15815;46.760;19.604;2023-03-14T04:24:30;99384.97;;;7.30;50.55
28628;BME280;15815;46.760;19.604;2023-03-14T04:26:59;99330.75;;;7.10;50.41
28628;BME280;15815;46.760;19.604;2023-03-14T04:29:27;99362.63;;;7.30;50.13
28628;BME280;15815;46.760;19.604;2023-03-14T04:31:53;99364.59;;;7.33;50.51
28628;BME280;15815;46.760;19.604;2023-03-14T04:34:18;99368.56;;;7.43;50.05
28628;BME280;15815;46.760;19.604;2023-03-14T04:36:50;99357.38;;;7.39;50.34
28628;BME280;15815;46.760;19.604;2023-03-14T04:39:16;99319.94;;;7.23;50.43
28628;BME280;15815;46.760;19.604;2023-03-14T04:41:47;99368.09;;;7.55;50.13
28628;BME280;15815;46.760;19.604;2023-03-14T04:44:18;99340.63;;;7.36;50.21
28628;BME280;15815;46.760;19.604;2023-03-14T04:46:46;99321.91;;;7.26;50.44
28628;BME280;15815;46.760;19.604;2023-03-14T04:49:16;99296.41;;;7.17;51.05
28628;BME280;15815;46.760;19.604;2023-03-14T04:51:46;99305.97;;;7.19;50.83
28628;BME280;15815;46.760;19.604;2023-03-14T04:54:14;99302.78;;;7.21;50.75
28628;BME280;15815;46.760;19.604;2023-03-14T04:57:06;99358.53;;;7.53;50.50
28628;BME280;15815;46.760;19.604;2023-03-14T04:59:37;99311.97;;;7.18;50.59
28628;BME280;15815;46.760;19.604;2023-03-14T05:02:11;99377.72;;;7.51;51.20
28628;BME280;15815;46.760;19.604;2023-03-14T05:05:05;99345.00;;;7.37;51.55
28628;BME280;15815;46.760;19.604;2023-03-14T05:10:32;99292.41;;;7.10;51.60
28628;BME280;15815;46.760;19.604;2023-03-14T05:13:11;99348.19;;;7.42;51.79
28628;BME280;15815;46.760;19.604;2023-03-14T05:15:39;99310.78;;;7.15;51.83
28628;BME280;15815;46.760;19.604;2023-03-14T05:18:10;99311.59;;;7.16;52.09
28628;BME280;15815;46.760;19.604;2023-03-14T05:20:58;99328.28;;;7.30;51.75
28628;BME280;15815;46.760;19.604;2023-03-14T05:23:32;99320.75;;;7.20;51.92
28628;BME280;15815;46.760;19.604;2023-03-14T05:26:00;99372.53;;;7.49;51.88
28628;BME280;15815;46.760;19.604;2023-03-14T05:28:25;99356.56;;;7.39;51.43
28628;BME280;15815;46.760;19.604;2023-03-14T05:30:51;99350.19;;;7.42;52.08
28628;BME280;15815;46.760;19.604;2023-03-14T05:33:17;99329.44;;;7.36;52.31
28628;BME280;15815;46.760;19.604;2023-03-14T05:35:42;99364.06;;;7.60;51.85
28628;BME280;15815;46.760;19.604;2023-03-14T05:38:08;99322.63;;;7.44;51.83
28628;BME280;15815;46.760;19.604;2023-03-14T05:40:38;99325.38;;;7.51;51.67
28628;BME280;15815;46.760;19.604;2023-03-14T05:43:04;99301.91;;;7.34;51.33
28628;BME280;15815;46.760;19.604;2023-03-14T05:45:32;99336.13;;;7.56;51.39
28628;BME280;15815;46.760;19.604;2023-03-14T05:48:00;99339.31;;;7.58;51.47
28628;BME280;15815;46.760;19.604;2023-03-14T05:50:27;99336.13;;;7.56;51.58
28628;BME280;15815;46.760;19.604;2023-03-14T05:52:53;99346.06;;;7.64;51.16
28628;BME280;15815;46.760;19.604;2023-03-14T05:55:23;99336.91;;;7.60;51.51
28628;BME280;15815;46.760;19.604;2023-03-14T05:57:48;99340.50;;;7.61;51.34
28628;BME280;15815;46.760;19.604;2023-03-14T06:00:14;99337.66;;;7.71;51.32
28628;BME280;15815;46.760;19.604;2023-03-14T06:02:40;99349.19;;;7.77;51.38
28628;BME280;15815;46.760;19.604;2023-03-14T06:05:06;99361.53;;;7.87;51.24
28628;BME280;15815;46.760;19.604;2023-03-14T06:07:32;99344.75;;;7.83;51.45
28628;BME280;15815;46.760;19.604;2023-03-14T06:09:58;99349.13;;;7.88;51.24
28628;BME280;15815;46.760;19.604;2023-03-14T06:12:24;99328.38;;;7.82;50.86
28628;BME280;15815;46.760;19.604;2023-03-14T06:14:49;99339.53;;;7.89;50.85
28628;BME280;15815;46.760;19.604;2023-03-14T06:17:15;99321.16;;;7.88;50.54
28628;BME280;15815;46.760;19.604;2023-03-14T06:19:41;99337.47;;;8.00;50.87
28628;BME280;15815;46.760;19.604;2023-03-14T06:22:06;99362.09;;;8.19;50.99
28628;BME280;15815;46.760;19.604;2023-03-14T06:24:33;99350.13;;;8.15;50.44
28628;BME280;15815;46.760;19.604;2023-03-14T06:26:59;99347.22;;;8.29;50.76
28628;BME280;15815;46.760;19.604;2023-03-14T06:29:24;99367.53;;;8.44;50.29
28628;BME280;15815;46.760;19.604;2023-03-14T06:31:55;99327.59;;;8.33;50.61
28628;BME280;15815;46.760;19.604;2023-03-14T06:34:21;99348.28;;;8.50;50.49
28628;BME280;15815;46.760;19.604;2023-03-14T06:36:46;99316.38;;;8.40;50.10
28628;BME280;15815;46.760;19.604;2023-03-14T06:39:12;99327.41;;;8.58;49.93
28628;BME280;15815;46.760;19.604;2023-03-14T06:41:37;99368.22;;;9.30;48.48
28628;BME280;15815;46.760;19.604;2023-03-14T06:44:03;99322.25;;;9.24;48.31
28628;BME280;15815;46.760;19.604;2023-03-14T06:46:42;99340.88;;;9.42;48.19
28628;BME280;15815;46.760;19.604;2023-03-14T06:49:07;99333.94;;;9.50;47.90
28628;BME280;15815;46.760;19.604;2023-03-14T06:51:33;99342.66;;;9.59;47.32
28628;BME280;15815;46.760;19.604;2023-03-14T06:53:59;99331.56;;;9.48;47.67
28628;BME280;15815;46.760;19.604;2023-03-14T06:56:25;99337.38;;;9.65;47.59
28628;BME280;15815;46.760;19.604;2023-03-14T06:58:50;99359.50;;;9.86;46.78
28628;BME280;15815;46.760;19.604;2023-03-14T07:01:27;99369.41;;;9.94;46.65
28628;BME280;15815;46.760;19.604;2023-03-14T07:03:54;99337.94;;;9.79;47.01
28628;BME280;15815;46.760;19.604;2023-03-14T07:06:19;99351.78;;;9.94;46.28
28628;BME280;15815;46.760;19.604;2023-03-14T07:08:46;99352.41;;;10.05;46.28
28628;BME280;15815;46.760;19.604;2023-03-14T07:11:12;99362.69;;;10.42;45.94
28628;BME280;15815;46.760;19.604;2023-03-14T07:13:38;99322.25;;;10.59;45.32
28628;BME280;15815;46.760;19.604;2023-03-14T07:16:05;99340.56;;;10.67;45.10
28628;BME280;15815;46.760;19.604;2023-03-14T07:18:30;99341.69;;;10.73;44.83
28628;BME280;15815;46.760;19.604;2023-03-14T07:20:56;99347.75;;;10.92;44.90
28628;BME280;15815;46.760;19.604;2023-03-14T07:23:22;99316.69;;;11.19;44.40
28628;BME280;15815;46.760;19.604;2023-03-14T07:25:47;99347.75;;;11.71;43.61
28628;BME280;15815;46.760;19.604;2023-03-14T07:28:13;99339.94;;;12.47;42.08
28628;BME280;15815;46.760;19.604;2023-03-14T07:30:39;99329.59;;;12.73;40.82
28628;BME280;15815;46.760;19.604;2023-03-14T07:33:05;99344.97;;;13.17;40.38
28628;BME280;15815;46.760;19.604;2023-03-14T07:35:31;99332.66;;;13.66;39.83
28628;BME280;15815;46.760;19.604;2023-03-14T07:37:57;99323.31;;;13.81;38.84
28628;BME280;15815;46.760;19.604;2023-03-14T07:40:22;99338.19;;;14.71;38.10
28628;BME280;15815;46.760;19.604;2023-03-14T07:42:48;99332.50;;;14.83;37.28
28628;BME280;15815;46.760;19.604;2023-03-14T07:45:14;99350.97;;;15.10;36.58
28628;BME280;15815;46.760;19.604;2023-03-14T07:47:39;99337.56;;;15.45;36.37
28628;BME280;15815;46.760;19.604;2023-03-14T07:50:05;99341.38;;;16.04;35.90
28628;BME280;15815;46.760;19.604;2023-03-14T07:52:31;99332.97;;;16.22;35.26
28628;BME280;15815;46.760;19.604;2023-03-14T07:54:57;99347.31;;;16.28;35.22
28628;BME280;15815;46.760;19.604;2023-03-14T07:57:28;99351.78;;;16.47;34.94
28628;BME280;15815;46.760;19.604;2023-03-14T07:59:57;99323.22;;;17.09;34.22
28628;BME280;15815;46.760;19.604;2023-03-14T08:02:26;99322.91;;;17.35;33.45
28628;BME280;15815;46.760;19.604;2023-03-14T08:04:51;99322.06;;;17.71;33.22
28628;BME280;15815;46.760;19.604;2023-03-14T08:07:17;99330.13;;;18.14;32.07
28628;BME280;15815;46.760;19.604;2023-03-14T08:09:42;99338.09;;;18.34;32.12
28628;BME280;15815;46.760;19.604;2023-03-14T08:12:08;99328.44;;;18.41;32.13
28628;BME280;15815;46.760;19.604;2023-03-14T08:14:34;99312.72;;;18.78;31.75
28628;BME280;15815;46.760;19.604;2023-03-14T08:16:59;99307.50;;;19.01;31.66
28628;BME280;15815;46.760;19.604;2023-03-14T08:19:31;99332.75;;;19.08;31.18
28628;BME280;15815;46.760;19.604;2023-03-14T08:21:57;99321.38;;;19.08;30.64
28628;BME280;15815;46.760;19.604;2023-03-14T08:24:23;99295.53;;;18.97;30.73
28628;BME280;15815;46.760;19.604;2023-03-14T08:26:49;99299.78;;;19.55;30.49
28628;BME280;15815;46.760;19.604;2023-03-14T08:29:14;99311.75;;;19.88;29.66
28628;BME280;15815;46.760;19.604;2023-03-14T08:31:40;99283.34;;;19.50;29.73
28628;BME280;15815;46.760;19.604;2023-03-14T08:34:06;99279.78;;;19.40;30.42
28628;BME280;15815;46.760;19.604;2023-03-14T08:36:34;99283.09;;;18.85;30.44
28628;BME280;15815;46.760;19.604;2023-03-14T08:38:59;99287.69;;;18.68;30.81
28628;BME280;15815;46.760;19.604;2023-03-14T08:41:25;99286.09;;;18.91;31.07
28628;BME280;15815;46.760;19.604;2023-03-14T08:43:51;99276.50;;;18.55;31.58
28628;BME280;15815;46.760;19.604;2023-03-14T08:46:16;99275.94;;;18.90;31.16
28628;BME280;15815;46.760;19.604;2023-03-14T08:48:42;99280.50;;;19.79;30.88
28628;BME280;15815;46.760;19.604;2023-03-14T08:51:10;99277.31;;;20.06;30.34
28628;BME280;15815;46.760;19.604;2023-03-14T08:53:39;99282.34;;;20.47;29.56
28628;BME280;15815;46.760;19.604;2023-03-14T08:56:05;99272.66;;;20.59;28.65
28628;BME280;15815;46.760;19.604;2023-03-14T08:58:34;99297.72;;;21.10;28.36
28628;BME280;15815;46.760;19.604;2023-03-14T09:00:59;99267.53;;;21.55;27.95
28628;BME280;15815;46.760;19.604;2023-03-14T09:03:25;99279.16;;;22.04;27.41
28628;BME280;15815;46.760;19.604;2023-03-14T09:05:52;99253.75;;;22.17;26.43
28628;BME280;15815;46.760;19.604;2023-03-14T09:08:17;99264.59;;;22.87;26.68
28628;BME280;15815;46.760;19.604;2023-03-14T09:10:43;99273.56;;;23.23;26.34
28628;BME280;15815;46.760;19.604;2023-03-14T09:13:09;99268.34;;;23.27;25.87
28628;BME280;15815;46.760;19.604;2023-03-14T09:15:35;99266.09;;;23.98;25.45
28628;BME280;15815;46.760;19.604;2023-03-14T09:18:00;99251.50;;;23.90;25.10
28628;BME280;15815;46.760;19.604;2023-03-14T09:20:26;99253.31;;;24.10;25.16
28628;BME280;15815;46.760;19.604;2023-03-14T09:22:52;99255.88;;;24.47;25.01
28628;BME280;15815;46.760;19.604;2023-03-14T09:25:17;99243.25;;;24.78;24.41
28628;BME280;15815;46.760;19.604;2023-03-14T09:27:43;99245.13;;;25.28;24.46
28628;BME280;15815;46.760;19.604;2023-03-14T09:30:09;99227.97;;;25.47;23.59
28628;BME280;15815;46.760;19.604;2023-03-14T09:32:35;99214.94;;;25.40;23.21
28628;BME280;15815;46.760;19.604;2023-03-14T09:35:00;99242.56;;;26.20;23.99
28628;BME280;15815;46.760;19.604;2023-03-14T09:37:26;99230.00;;;26.47;23.07
28628;BME280;15815;46.760;19.604;2023-03-14T09:39:51;99220.22;;;26.26;22.73
28628;BME280;15815;46.760;19.604;2023-03-14T09:42:22;99202.91;;;26.32;23.09
28628;BME280;15815;46.760;19.604;2023-03-14T09:47:19;99194.75;;;26.60;22.67
28628;BME280;15815;46.760;19.604;2023-03-14T09:49:50;99200.84;;;26.27;22.24
28628;BME280;15815;46.760;19.604;2023-03-14T09:52:21;99178.81;;;26.97;22.34
28628;BME280;15815;46.760;19.604;2023-03-14T09:57:37;99201.03;;;27.02;22.05
28628;BME280;15815;46.760;19.604;2023-03-14T10:00:10;99190.97;;;26.90;21.96
28628;BME280;15815;46.760;19.604;2023-03-14T10:02:40;99177.31;;;26.90;21.87
28628;BME280;15815;46.760;19.604;2023-03-14T10:05:16;99186.66;;;27.34;22.13
28628;BME280;15815;46.760;19.604;2023-03-14T10:07:42;99167.66;;;27.25;21.96
28628;BME280;15815;46.760;19.604;2023-03-14T10:10:15;99174.69;;;27.62;21.94
28628;BME280;15815;46.760;19.604;2023-03-14T10:12:45;99172.97;;;27.21;21.55
28628;BME280;15815;46.760;19.604;2023-03-14T10:15:12;99173.53;;;27.52;22.02
28628;BME280;15815;46.760;19.604;2023-03-14T10:17:46;99175.69;;;27.64;21.65
28628;BME280;15815;46.760;19.604;2023-03-14T10:20:33;99162.38;;;28.59;21.22
28628;BME280;15815;46.760;19.604;2023-03-14T10:25:40;99153.94;;;28.22;21.38
28628;BME280;15815;46.760;19.604;2023-03-14T10:28:23;99139.16;;;28.39;21.88
28628;BME280;15815;46.760;19.604;2023-03-14T10:30:52;99133.94;;;28.50;21.49
28628;BME280;15815;46.760;19.604;2023-03-14T10:33:33;99114.47;;;28.11;21.42
28628;BME280;15815;46.760;19.604;2023-03-14T10:36:21;99125.25;;;28.24;21.09
28628;BME280;15815;46.760;19.604;2023-03-14T10:38:45;99114.84;;;28.34;21.51
28628;BME280;15815;46.760;19.604;2023-03-14T10:41:27;99119.91;;;28.15;21.56
28628;BME280;15815;46.760;19.604;2023-03-14T10:43:59;99093.50;;;27.97;21.01
28628;BME280;15815;46.760;19.604;2023-03-14T10:46:33;99119.47;;;28.11;20.61
28628;BME280;15815;46.760;19.604;2023-03-14T10:49:04;99104.41;;;28.31;20.66
28628;BME280;15815;46.760;19.604;2023-03-14T10:51:31;99116.59;;;28.50;20.25
28628;BME280;15815;46.760;19.604;2023-03-14T10:54:00;99079.59;;;28.36;20.21
28628;BME280;15815;46.760;19.604;2023-03-14T10:56:33;99116.59;;;28.98;20.07
28628;BME280;15815;46.760;19.604;2023-03-14T10:59:10;99089.47;;;28.40;20.48
28628;BME280;15815;46.760;19.604;2023-03-14T11:07:07;99100.91;;;28.59;19.97
28628;BME280;15815;46.760;19.604;2023-03-14T11:12:38;99083.56;;;28.59;20.25
28628;BME280;15815;46.760;19.604;2023-03-14T11:17:44;99052.97;;;28.63;20.91
28628;BME280;15815;46.760;19.604;2023-03-14T11:23:08;99052.59;;;28.33;20.98
28628;BME280;15815;46.760;19.604;2023-03-14T11:28:39;99044.84;;;28.01;21.17
28628;BME280;15815;46.760;19.604;2023-03-14T11:31:13;99081.47;;;27.67;21.78
28628;BME280;15815;46.760;19.604;2023-03-14T11:33:50;99057.06;;;26.53;22.70
28628;BME280;15815;46.760;19.604;2023-03-14T11:36:39;99049.84;;;25.54;23.45
28628;BME280;15815;46.760;19.604;2023-03-14T11:39:17;99033.06;;;25.58;23.66
28628;BME280;15815;46.760;19.604;2023-03-14T11:41:46;99038.03;;;25.04;23.82
28628;BME280;15815;46.760;19.604;2023-03-14T11:44:23;99068.38;;;24.99;24.49
28628;BME280;15815;46.760;19.604;2023-03-14T11:47:02;99053.81;;;24.45;24.73
28628;BME280;15815;46.760;19.604;2023-03-14T11:49:42;99060.63;;;24.42;25.21
28628;BME280;15815;46.760;19.604;2023-03-14T11:52:16;99047.66;;;24.18;24.73
28628;BME280;15815;46.760;19.604;2023-03-14T11:58:23;99021.78;;;23.49;25.75
28628;BME280;15815;46.760;19.604;2023-03-14T12:00:51;99001.22;;;23.45;26.06
28628;BME280;15815;46.760;19.604;2023-03-14T12:03:43;99026.75;;;23.43;26.35
28628;BME280;15815;46.760;19.604;2023-03-14T12:09:05;98996.88;;;23.05;26.28
28628;BME280;15815;46.760;19.604;2023-03-14T12:14:32;98984.09;;;22.84;27.01
28628;BME280;15815;46.760;19.604;2023-03-14T12:17:21;98996.28;;;22.73;27.07
28628;BME280;15815;46.760;19.604;2023-03-14T12:20:00;98994.00;;;22.94;27.28
28628;BME280;15815;46.760;19.604;2023-03-14T12:22:31;98984.84;;;22.73;28.00
28628;BME280;15815;46.760;19.604;2023-03-14T12:25:14;98970.50;;;22.45;27.42
28628;BME280;15815;46.760;19.604;2023-03-14T12:35:50;98928.84;;;22.10;28.00
28628;BME280;15815;46.760;19.604;2023-03-14T12:43:31;98894.19;;;21.92;28.39
28628;BME280;15815;46.760;19.604;2023-03-14T12:48:46;98930.66;;;22.13;29.28
28628;BME280;15815;46.760;19.604;2023-03-14T12:51:21;98931.69;;;22.05;28.34
28628;BME280;15815;46.760;19.604;2023-03-14T12:56:58;98893.81;;;21.50;28.83
28628;BME280;15815;46.760;19.604;2023-03-14T12:59:34;98894.28;;;21.38;29.14
28628;BME280;15815;46.760;19.604;2023-03-14T13:04:48;98904.03;;;21.20;29.92
28628;BME280;15815;46.760;19.604;2023-03-14T13:12:49;98882.44;;;21.13;30.36
28628;BME280;15815;46.760;19.604;2023-03-14T13:15:45;98903.88;;;21.35;29.86
28628;BME280;15815;46.760;19.604;2023-03-14T13:18:24;98907.69;;;21.20;30.07
28628;BME280;15815;46.760;19.604;2023-03-14T13:20:54;98904.28;;;21.16;29.64
28628;BME280;15815;46.760;19.604;2023-03-14T13:23:26;98867.53;;;20.92;29.60
28628;BME280;15815;46.760;19.604;2023-03-14T13:25:56;98883.66;;;21.01;29.61
28628;BME280;15815;46.760;19.604;2023-03-14T13:28:22;98890.91;;;20.96;29.99
28628;BME280;15815;46.760;19.604;2023-03-14T13:30:58;98878.41;;;20.83;29.51
28628;BME280;15815;46.760;19.604;2023-03-14T13:33:24;98864.13;;;20.83;29.66
28628;BME280;15815;46.760;19.604;2023-03-14T13:36:00;98897.97;;;21.07;29.73
28628;BME280;15815;46.760;19.604;2023-03-14T13:38:35;98868.88;;;21.03;29.29
28628;BME280;15815;46.760;19.604;2023-03-14T13:41:05;98856.94;;;21.04;29.63
28628;BME280;15815;46.760;19.604;2023-03-14T13:43:44;98853.81;;;21.02;30.20
28628;BME280;15815;46.760;19.604;2023-03-14T13:46:20;98842.88;;;20.95;29.15
28628;BME280;15815;46.760;19.604;2023-03-14T13:48:58;98883.00;;;21.23;29.25
28628;BME280;15815;46.760;19.604;2023-03-14T13:51:25;98858.22;;;21.03;28.97
28628;BME280;15815;46.760;19.604;2023-03-14T13:53:53;98860.38;;;21.14;29.71
28628;BME280;15815;46.760;19.604;2023-03-14T13:56:22;98851.34;;;20.78;29.89
28628;BME280;15815;46.760;19.604;2023-03-14T13:58:49;98876.34;;;20.89;30.07
28628;BME280;15815;46.760;19.604;2023-03-14T14:01:23;98864.50;;;20.64;29.96
28628;BME280;15815;46.760;19.604;2023-03-14T14:03:54;98835.22;;;20.38;30.21
28628;BME280;15815;46.760;19.604;2023-03-14T14:06:49;98862.19;;;20.37;30.57
28628;BME280;15815;46.760;19.604;2023-03-14T14:09:27;98821.25;;;20.09;31.13
28628;BME280;15815;46.760;19.604;2023-03-14T14:11:56;98870.97;;;20.28;30.71
28628;BME280;15815;46.760;19.604;2023-03-14T14:14:30;98846.59;;;20.01;31.28
28628;BME280;15815;46.760;19.604;2023-03-14T14:17:01;98843.25;;;20.02;31.78
28628;BME280;15815;46.760;19.604;2023-03-14T14:19:32;98818.75;;;19.90;31.49
28628;BME280;15815;46.760;19.604;2023-03-14T14:21:59;98862.28;;;20.17;31.91
28628;BME280;15815;46.760;19.604;2023-03-14T14:24:30;98831.84;;;20.02;31.66
28628;BME280;15815;46.760;19.604;2023-03-14T14:29:39;98826.25;;;19.88;31.75
28628;BME280;15815;46.760;19.604;2023-03-14T14:32:14;98808.56;;;19.78;31.75
28628;BME280;15815;46.760;19.604;2023-03-14T14:34:56;98826.56;;;19.95;32.35
28628;BME280;15815;46.760;19.604;2023-03-14T14:37:32;98816.41;;;19.89;32.45
28628;BME280;15815;46.760;19.604;2023-03-14T14:40:10;98837.72;;;19.93;32.34
28628;BME280;15815;46.760;19.604;2023-03-14T14:42:40;98828.13;;;19.96;32.77
28628;BME280;15815;46.760;19.604;2023-03-14T14:45:14;98831.72;;;19.91;32.24
28628;BME280;15815;46.760;19.604;2023-03-14T14:48:07;98853.75;;;19.91;32.08
28628;BME280;15815;46.760;19.604;2023-03-14T14:50:43;98818.22;;;19.60;32.64
28628;BME280;15815;46.760;19.604;2023-03-14T14:53:37;98842.13;;;19.68;32.57
28628;BME280;15815;46.760;19.604;2023-03-14T14:58:44;98818.88;;;19.29;32.81
28628;BME280;15815;46.760;19.604;2023-03-14T15:01:11;98832.13;;;19.32;32.92
28628;BME280;15815;46.760;19.604;2023-03-14T15:03:42;98808.63;;;19.17;32.44
28628;BME280;15815;46.760;19.604;2023-03-14T15:06:12;98787.53;;;19.03;33.06
28628;BME280;15815;46.760;19.604;2023-03-14T15:08:45;98820.34;;;19.19;33.00
28628;BME280;15815;46.760;19.604;2023-03-14T15:11:17;98816.91;;;19.15;32.79
28628;BME280;15815;46.760;19.604;2023-03-14T15:13:42;98812.06;;;19.01;32.90
28628;BME280;15815;46.760;19.604;2023-03-14T15:16:17;98803.97;;;18.94;33.00
28628;BME280;15815;46.760;19.604;2023-03-14T15:18:47;98808.50;;;18.86;33.05
28628;BME280;15815;46.760;19.604;2023-03-14T15:21:17;98796.69;;;18.72;33.12
28628;BME280;15815;46.760;19.604;2023-03-14T15:23:54;98796.06;;;18.63;32.87
28628;BME280;15815;46.760;19.604;2023-03-14T15:26:22;98810.44;;;18.74;33.44
28628;BME280;15815;46.760;19.604;2023-03-14T15:28:50;98782.22;;;18.56;33.22
28628;BME280;15815;46.760;19.604;2023-03-14T15:31:17;98792.81;;;18.55;33.09
28628;BME280;15815;46.760;19.604;2023-03-14T15:33:46;98805.38;;;18.63;33.24
28628;BME280;15815;46.760;19.604;2023-03-14T15:36:22;98795.38;;;18.53;33.42
28628;BME280;15815;46.760;19.604;2023-03-14T15:38:49;98774.31;;;18.45;33.23
28628;BME280;15815;46.760;19.604;2023-03-14T15:41:16;98772.81;;;18.49;33.84
28628;BME280;15815;46.760;19.604;2023-03-14T15:43:45;98771.19;;;18.43;33.46
28628;BME280;15815;46.760;19.604;2023-03-14T15:46:13;98790.66;;;18.50;33.83
28628;BME280;15815;46.760;19.604;2023-03-14T15:48:38;98776.31;;;18.39;33.71
28628;BME280;15815;46.760;19.604;2023-03-14T15:51:04;98770.41;;;18.42;33.93
28628;BME280;15815;46.760;19.604;2023-03-14T15:53:30;98771.78;;;18.32;33.67
28628;BME280;15815;46.760;19.604;2023-03-14T15:55:56;98778.38;;;18.23;33.92
28628;BME280;15815;46.760;19.604;2023-03-14T15:58:21;98759.00;;;18.07;34.16
28628;BME280;15815;46.760;19.604;2023-03-14T16:00:48;98760.19;;;18.01;34.41
28628;BME280;15815;46.760;19.604;2023-03-14T16:03:13;98778.13;;;18.07;34.10
28628;BME280;15815;46.760;19.604;2023-03-14T16:05:42;98783.81;;;18.07;34.65